Time;durP1;ratioP1;P1;durP2;ratioP2;P2;SDS_P1;SDS_P2;PMS_P1;PMS_P2;Temp;Humidity;BMP_temperature;BMP_pressure;BME280_temperature;BME280_humidity;BME280_pressure;Samples;Min_cycle;Max_cycle;Signal;HPM_P1;HPM_P2
2021/10/12 00:00:53;;;;;;;2.25;1.65;;;;;;;12.90;57.44;100126.00;4916714;29;20040;-80
2021/10/12 00:03:20;;;;;;;2.10;1.90;;;;;;;12.90;57.46;100121.59;4916791;29;20381;-80
2021/10/12 00:05:48;;;;;;;2.05;1.63;;;;;;;13.00;56.70;100121.88;4916831;29;20055;-81
2021/10/12 00:08:15;;;;;;;2.42;1.70;;;;;;;12.99;56.71;100120.16;4917117;29;20059;-82
2021/10/12 00:10:41;;;;;;;1.85;1.50;;;;;;;13.06;56.76;100121.50;4917000;29;20075;-82
2021/10/12 00:13:09;;;;;;;2.35;1.83;;;;;;;13.07;56.30;100112.69;4915068;29;20044;-81
2021/10/12 00:15:37;;;;;;;1.63;1.48;;;;;;;13.01;56.62;100121.78;4916255;29;20059;-81
2021/10/12 00:18:03;;;;;;;2.05;1.67;;;;;;;12.94;57.16;100119.59;4916505;29;20048;-81
2021/10/12 00:20:30;;;;;;;1.98;1.52;;;;;;;13.00;56.65;100122.72;4916638;29;20087;-81
2021/10/12 00:22:57;;;;;;;3.28;1.50;;;;;;;12.95;56.90;100119.53;4916708;29;20051;-81
2021/10/12 00:25:24;;;;;;;2.42;1.67;;;;;;;13.03;56.33;100119.03;4916240;29;20127;-82
2021/10/12 00:27:54;;;;;;;3.10;1.60;;;;;;;13.02;56.23;100109.53;4917126;29;20063;-81
2021/10/12 00:30:20;;;;;;;2.53;1.52;;;;;;;12.95;56.53;100103.00;4912363;29;20048;-81
2021/10/12 00:32:48;;;;;;;1.50;1.40;;;;;;;12.98;56.22;100101.00;4917048;29;20403;-81
2021/10/12 00:35:15;;;;;;;1.67;1.38;;;;;;;12.96;56.78;100097.66;4915526;29;20048;-82
2021/10/12 00:37:42;;;;;;;1.52;1.42;;;;;;;13.01;55.92;100095.59;4930800;29;20040;-82
2021/10/12 00:40:10;;;;;;;2.08;1.88;;;;;;;13.14;55.49;100098.28;4915765;29;20062;-80
2021/10/12 00:42:37;;;;;;;1.50;1.40;;;;;;;12.99;56.16;100105.31;4916210;29;20051;-82
2021/10/12 00:45:07;;;;;;;1.60;1.50;;;;;;;13.02;55.90;100099.06;4916250;29;20549;-82
2021/10/12 00:47:34;;;;;;;1.42;1.30;;;;;;;12.96;56.35;100092.44;4916721;29;20066;-82
2021/10/12 00:50:02;;;;;;;1.52;1.38;;;;;;;12.93;56.60;100095.22;4916516;29;20036;-82
2021/10/12 00:52:32;;;;;;;1.55;1.40;;;;;;;12.97;56.07;100085.41;4916278;29;20048;-82
2021/10/12 00:54:59;;;;;;;1.95;1.70;;;;;;;12.81;57.12;100080.28;4917321;29;20047;-82
2021/10/12 00:57:26;;;;;;;2.03;1.60;;;;;;;12.68;58.85;100077.59;4919817;29;20123;-81
2021/10/12 00:59:53;;;;;;;3.47;2.13;;;;;;;12.52;60.14;100076.88;4920170;29;20451;-82
2021/10/12 01:02:20;;;;;;;1.90;1.50;;;;;;;12.46;60.11;100074.59;4920525;29;20047;-82
2021/10/12 01:04:47;;;;;;;2.78;1.50;;;;;;;12.49;59.59;100069.19;4922091;29;20044;-80
2021/10/12 01:07:14;;;;;;;2.40;2.20;;;;;;;12.01;63.00;100072.03;4925654;29;20439;-81
2021/10/12 01:09:41;;;;;;;2.28;2.08;;;;;;;11.82;63.60;100074.00;4921820;29;20036;-82
2021/10/12 01:12:08;;;;;;;4.72;2.22;;;;;;;11.67;65.19;100065.28;4920211;29;20048;-82
2021/10/12 01:14:35;;;;;;;6.05;2.80;;;;;;;11.47;67.01;100074.25;4921049;29;20455;-82
2021/10/12 01:17:02;;;;;;;5.28;2.90;;;;;;;11.25;68.24;100068.53;4919726;29;20064;-82
2021/10/12 01:19:29;;;;;;;2.97;2.33;;;;;;;11.17;69.51;100076.78;4920175;29;20044;-82
2021/10/12 01:21:55;;;;;;;4.85;3.08;;;;;;;11.15;69.66;100073.44;4919878;29;20495;-81
2021/10/12 01:24:22;;;;;;;3.28;2.97;;;;;;;11.14;69.80;100068.31;4919706;29;20055;-82
2021/10/12 01:26:49;;;;;;;4.20;3.38;;;;;;;10.96;71.05;100073.56;4919998;29;20499;-82
2021/10/12 01:29:16;;;;;;;5.82;3.22;;;;;;;10.86;71.88;100079.38;4919853;29;20048;-81
2021/10/12 01:31:43;;;;;;;4.47;2.88;;;;;;;10.88;71.64;100070.56;4919761;29;20232;-82
2021/10/12 01:34:11;;;;;;;4.53;3.47;;;;;;;10.91;71.43;100066.91;4919277;29;20052;-82
2021/10/12 01:36:38;;;;;;;3.58;2.60;;;;;;;10.84;72.46;100078.63;4919501;29;20076;-82
2021/10/12 01:39:05;;;;;;;2.90;2.58;;;;;;;10.89;71.55;100080.06;4919240;29;20056;-83
2021/10/12 01:41:32;;;;;;;4.68;3.00;;;;;;;10.80;72.72;100075.31;4919296;29;20044;-82
2021/10/12 01:43:59;;;;;;;4.63;2.58;;;;;;;10.79;72.29;100081.47;4919467;29;20047;-82
2021/10/12 01:46:26;;;;;;;2.60;2.20;;;;;;;10.73;72.28;100072.22;4918733;29;20503;-83
2021/10/12 01:48:53;;;;;;;4.13;2.03;;;;;;;10.75;71.93;100069.50;4919295;29;20044;-83
2021/10/12 01:51:20;;;;;;;3.95;2.55;;;;;;;10.77;71.43;100057.25;4918553;29;20052;-83
2021/10/12 01:53:47;;;;;;;3.90;3.20;;;;;;;10.86;70.23;100056.75;4919185;29;20407;-83
2021/10/12 01:56:14;;;;;;;2.28;1.73;;;;;;;10.89;70.06;100048.75;4918790;29;20503;-82
2021/10/12 01:58:43;;;;;;;2.00;1.80;;;;;;;10.88;69.79;100043.63;4919198;29;20055;-83
2021/10/12 02:01:10;;;;;;;4.47;1.80;;;;;;;10.82;69.96;100046.59;4919004;29;20052;-82
2021/10/12 02:03:37;;;;;;;4.35;1.88;;;;;;;10.75;70.62;100039.06;4919253;29;20044;-82
2021/10/12 02:06:04;;;;;;;3.75;2.10;;;;;;;10.77;69.96;100041.63;4919056;29;20427;-82
2021/10/12 02:08:31;;;;;;;1.70;1.60;;;;;;;10.79;69.87;100041.53;4916816;29;20048;-82
2021/10/12 02:10:58;;;;;;;4.20;1.63;;;;;;;10.78;69.71;100040.69;4918915;29;20134;-82
2021/10/12 02:13:24;;;;;;;3.65;1.67;;;;;;;10.79;69.70;100039.75;4918291;29;20048;-82
2021/10/12 02:15:51;;;;;;;2.42;2.05;;;;;;;10.77;69.74;100033.78;4918663;29;20067;-82
2021/10/12 02:18:18;;;;;;;1.85;1.63;;;;;;;10.79;69.42;100029.31;4917971;29;20524;-82
2021/10/12 02:20:46;;;;;;;1.88;1.58;;;;;;;10.79;69.79;100023.28;4918935;29;20052;-82
2021/10/12 02:23:13;;;;;;;2.33;1.60;;;;;;;10.77;69.13;100020.75;4918287;29;20051;-82
2021/10/12 02:25:40;;;;;;;1.88;1.60;;;;;;;10.58;70.57;100026.09;4918544;29;20447;-82
2021/10/12 02:28:06;;;;;;;1.88;1.40;;;;;;;10.58;70.57;100025.25;4918593;29;20517;-81
2021/10/12 02:30:33;;;;;;;2.75;1.60;;;;;;;10.62;69.83;100017.19;4919023;29;20050;-82
2021/10/12 02:33:00;;;;;;;2.30;1.70;;;;;;;10.59;69.94;100009.53;4918798;29;20044;-81
2021/10/12 02:35:28;;;;;;;2.00;1.55;;;;;;;10.63;69.35;100008.44;4918204;29;20044;-81
2021/10/12 02:37:55;;;;;;;1.88;1.60;;;;;;;10.57;70.04;99994.91;4918126;29;20040;-81
2021/10/12 02:40:22;;;;;;;2.67;2.40;;;;;;;10.28;72.37;100002.53;4932123;29;20096;-82
2021/10/12 02:42:49;;;;;;;4.20;2.15;;;;;;;10.27;72.79;100003.44;4917885;29;20044;-82
2021/10/12 02:45:16;;;;;;;4.15;2.67;;;;;;;10.15;73.97;100010.09;4908196;29;20044;-81
2021/10/12 02:47:46;;;;;;;2.80;1.95;;;;;;;10.02;74.86;100010.81;4914351;29;20059;-82
2021/10/12 02:50:13;;;;;;;2.60;1.58;;;;;;;10.02;75.29;100003.84;4917144;29;20050;-82
2021/10/12 02:52:40;;;;;;;3.40;1.92;;;;;;;9.87;76.39;99997.66;4917914;29;20044;-83
2021/10/12 02:55:08;;;;;;;4.82;1.80;;;;;;;9.76;77.01;99992.16;4917935;29;20048;-81
2021/10/12 02:57:35;;;;;;;2.92;1.73;;;;;;;9.71;77.06;99991.56;4917546;29;20452;-81
2021/10/12 03:00:05;;;;;;;7.03;2.47;;;;;;;9.67;77.73;99993.44;4917539;29;20048;-82
2021/10/12 03:02:32;;;;;;;4.07;1.50;;;;;;;9.52;77.87;99990.78;4917256;29;20051;-82
2021/10/12 03:05:00;;;;;;;5.53;1.90;;;;;;;9.54;77.93;99994.16;4917905;29;20036;-82
2021/10/12 03:07:26;;;;;;;3.65;2.05;;;;;;;9.48;78.41;100004.84;4917355;29;20056;-81
2021/10/12 03:09:53;;;;;;;3.28;2.08;;;;;;;9.24;80.16;99999.94;4917410;29;20068;-81
2021/10/12 03:12:20;;;;;;;3.67;2.05;;;;;;;9.02;81.46;100007.09;4931770;29;20076;-80
2021/10/12 03:14:46;;;;;;;5.53;3.78;;;;;;;9.16;81.14;100009.84;4917551;29;20103;-80
2021/10/12 03:17:13;;;;;;;3.03;2.65;;;;;;;9.07;81.88;100021.53;4916883;29;20099;-80
2021/10/12 03:19:40;;;;;;;3.28;2.60;;;;;;;9.09;82.53;100016.25;4917534;29;20447;-80
2021/10/12 03:22:11;;;;;;;5.50;3.85;;;;;;;9.09;82.47;100018.88;4917347;29;20052;-79
2021/10/12 03:24:38;;;;;;;5.38;3.22;;;;;;;9.06;82.90;100016.44;4917127;29;20498;-80
2021/10/12 03:27:07;;;;;;;6.30;4.20;;;;;;;9.13;82.82;100015.22;4917416;29;20036;-80
2021/10/12 03:29:34;;;;;;;5.63;4.35;;;;;;;9.20;82.68;100011.41;4917577;29;20044;-80
2021/10/12 03:32:01;;;;;;;5.68;4.03;;;;;;;9.41;81.91;100010.34;4917595;29;20173;-80
2021/10/12 03:34:31;;;;;;;10.05;5.57;;;;;;;9.48;81.71;100007.44;4916861;29;20048;-80
2021/10/12 03:36:59;;;;;;;7.57;6.25;;;;;;;9.43;81.54;100003.34;4917208;29;20059;-80
2021/10/12 03:39:27;;;;;;;9.32;7.32;;;;;;;9.57;81.18;99999.19;4916889;29;20182;-80
2021/10/12 03:41:54;;;;;;;7.75;6.10;;;;;;;9.59;80.74;100003.41;4918107;29;20047;-81
2021/10/12 03:44:22;;;;;;;8.23;4.70;;;;;;;9.66;80.45;100001.34;4917694;29;20048;-79
2021/10/12 03:46:50;;;;;;;7.85;4.35;;;;;;;9.71;80.09;99995.00;4917301;29;20119;-80
2021/10/12 03:49:17;;;;;;;7.32;5.03;;;;;;;9.82;79.36;99994.44;4917454;29;20048;-81
2021/10/12 03:51:44;;;;;;;6.68;4.50;;;;;;;9.79;79.35;99994.59;4916816;29;20040;-81
2021/10/12 03:54:12;;;;;;;7.28;4.07;;;;;;;9.81;79.26;99978.91;4917467;29;20103;-80
2021/10/12 03:56:40;;;;;;;5.93;5.25;;;;;;;9.95;78.39;99985.06;4916913;29;20040;-80
2021/10/12 03:59:07;;;;;;;5.07;3.83;;;;;;;9.98;78.62;99982.31;4917382;29;20488;-80
2021/10/12 04:01:33;;;;;;;7.68;4.25;;;;;;;10.03;78.26;99982.09;4916893;29;20104;-80
2021/10/12 04:04:01;;;;;;;5.07;3.30;;;;;;;9.91;78.56;99977.53;4917163;29;20044;-81
2021/10/12 04:06:31;;;;;;;5.53;3.85;;;;;;;9.92;78.65;99967.03;4917374;29;20047;-80
2021/10/12 04:08:57;;;;;;;4.25;3.65;;;;;;;9.93;78.63;99973.06;4917200;29;20052;-80
2021/10/12 04:11:25;;;;;;;6.30;4.18;;;;;;;9.81;78.88;99966.75;4917593;29;20048;-80
2021/10/12 04:13:52;;;;;;;6.38;2.70;;;;;;;9.55;80.07;99975.84;4916487;29;20100;-81
2021/10/12 04:16:19;;;;;;;2.42;2.05;;;;;;;9.38;81.29;99974.09;4915652;29;20467;-81
2021/10/12 04:18:46;;;;;;;4.35;1.95;;;;;;;9.36;81.79;99975.91;4917178;29;20048;-80
2021/10/12 04:21:14;;;;;;;4.30;2.28;;;;;;;9.22;82.19;99978.38;4916993;29;20052;-80
2021/10/12 04:23:41;;;;;;;3.20;1.70;;;;;;;9.21;83.00;99979.25;4916470;29;20499;-81
2021/10/12 04:26:13;;;;;;;5.00;2.08;;;;;;;9.26;82.76;99979.88;4917034;29;20052;-80
2021/10/12 04:28:40;;;;;;;4.47;1.90;;;;;;;9.27;83.03;99975.53;4916542;29;20048;-81
2021/10/12 04:31:06;;;;;;;1.80;1.67;;;;;;;9.21;83.86;99976.66;4917213;29;20204;-80
2021/10/12 04:33:34;;;;;;;3.58;2.00;;;;;;;9.20;84.15;99980.19;4916778;29;20123;-82
2021/10/12 04:36:01;;;;;;;2.13;1.77;;;;;;;9.16;84.08;99978.63;4915604;29;20365;-80
2021/10/12 04:38:28;;;;;;;5.55;2.05;;;;;;;9.19;84.19;99983.72;4910555;29;20052;-79
2021/10/12 04:40:56;;;;;;;2.50;2.00;;;;;;;9.21;83.65;99981.88;4925962;29;20079;-81
2021/10/12 04:43:23;;;;;;;6.82;2.10;;;;;;;9.14;84.51;99985.69;4910039;29;20080;-81
2021/10/12 04:45:50;;;;;;;2.60;2.28;;;;;;;9.20;83.83;99980.19;4916169;29;20486;-80
2021/10/12 04:48:17;;;;;;;4.30;2.45;;;;;;;9.18;83.37;99982.03;4916285;29;20052;-82
2021/10/12 04:50:43;;;;;;;4.35;2.00;;;;;;;9.28;82.86;99987.63;4915703;29;20044;-80
2021/10/12 04:53:11;;;;;;;2.85;2.13;;;;;;;9.31;82.17;99985.69;4915631;29;20538;-79
2021/10/12 04:55:40;;;;;;;2.63;2.00;;;;;;;9.22;82.64;99983.56;4914891;29;20040;-78
2021/10/12 04:58:10;;;;;;;4.03;2.42;;;;;;;9.21;83.14;99986.22;4915934;29;20115;-79
2021/10/12 05:00:37;;;;;;;5.28;2.08;;;;;;;8.99;84.79;99997.66;4915832;29;20672;-79
2021/10/12 05:03:06;;;;;;;2.35;2.08;;;;;;;8.94;85.00;99989.22;4915752;29;20055;-79
2021/10/12 05:05:34;;;;;;;3.35;2.22;;;;;;;8.94;84.85;99994.44;4916317;29;20043;-78
2021/10/12 05:08:01;;;;;;;5.22;2.20;;;;;;;8.84;85.52;99987.97;4916000;29;20139;-79
2021/10/12 05:10:28;;;;;;;1.83;1.70;;;;;;;8.57;87.44;99983.13;4915959;29;20075;-78
2021/10/12 05:12:55;;;;;;;2.22;2.03;;;;;;;8.61;87.61;99981.25;4915686;29;20044;-79
2021/10/12 05:15:27;;;;;;;2.28;1.80;;;;;;;8.61;87.90;99976.91;4914385;29;20063;-79
2021/10/12 05:17:54;;;;;;;1.70;1.60;;;;;;;8.71;87.81;99972.13;4912010;29;20502;-77
2021/10/12 05:20:21;;;;;;;3.85;2.03;;;;;;;8.80;86.81;99974.31;4909272;29;20044;-76
2021/10/12 05:22:48;;;;;;;10.00;2.67;;;;;;;8.69;88.06;99979.16;4911719;29;20078;-77
2021/10/12 05:25:15;;;;;;;5.90;2.65;;;;;;;8.66;88.30;99969.72;4908453;29;20046;-77
2021/10/12 05:27:42;;;;;;;4.82;1.90;;;;;;;8.65;88.29;99973.25;4908430;29;20040;-77
2021/10/12 05:30:11;;;;;;;2.65;2.15;;;;;;;8.62;88.85;99972.53;4910912;29;20049;-76
2021/10/12 05:32:39;;;;;;;2.47;2.22;;;;;;;8.75;88.10;99963.28;4911962;29;20146;-77
2021/10/12 05:35:08;;;;;;;4.28;2.10;;;;;;;8.89;87.09;99960.00;4909410;29;20048;-82
2021/10/12 05:37:36;;;;;;;4.10;2.35;;;;;;;8.93;86.45;99956.34;4911792;29;20563;-82
2021/10/12 05:40:04;;;;;;;7.72;2.58;;;;;;;8.84;86.67;99962.84;4907328;29;20052;-83
2021/10/12 05:42:33;;;;;;;6.20;2.20;;;;;;;8.78;87.64;99968.31;4917443;29;20055;-79
2021/10/12 05:45:00;;;;;;;2.75;2.38;;;;;;;8.95;86.96;99974.47;4925920;29;20048;-82
2021/10/12 05:47:28;;;;;;;2.83;2.40;;;;;;;9.07;85.93;99971.31;4916915;29;20127;-85
2021/10/12 05:49:55;;;;;;;3.75;2.47;;;;;;;8.99;86.54;99968.22;4915216;29;20059;-84
2021/10/12 05:52:23;;;;;;;4.03;2.17;;;;;;;9.01;86.73;99976.81;4921546;29;20045;-81
2021/10/12 05:55:12;;;;;;;3.45;2.13;;;;;;;9.06;86.34;99978.28;4916892;29;20040;-85
2021/10/12 05:57:52;;;;;;;4.30;2.50;;;;;;;9.17;85.84;99991.59;4918131;29;20044;-85
2021/10/12 06:00:19;;;;;;;3.85;2.50;;;;;;;9.19;85.68;99996.72;4915565;29;20515;-85
2021/10/12 06:02:46;;;;;;;12.35;3.00;;;;;;;9.25;85.99;99993.81;4914468;29;20040;-85
2021/10/12 06:05:13;;;;;;;3.50;2.38;;;;;;;9.35;85.51;99995.03;4914456;29;20499;-85
2021/10/12 06:07:39;;;;;;;6.28;2.17;;;;;;;9.43;85.36;100000.72;4913847;29;20057;-83
2021/10/12 06:10:07;;;;;;;6.63;2.33;;;;;;;9.38;85.24;100000.13;4912644;29;20044;-83
2021/10/12 06:12:33;;;;;;;5.13;3.03;;;;;;;9.50;84.73;100013.44;4911870;29;20558;-84
2021/10/12 06:15:00;;;;;;;3.25;2.50;;;;;;;9.69;83.59;100003.78;4907768;29;20107;-82
2021/10/12 06:17:27;;;;;;;4.32;2.75;;;;;;;9.77;82.91;100006.84;4914692;29;20056;-84
2021/10/12 06:19:54;;;;;;;3.50;2.25;;;;;;;10.03;81.84;100007.28;4917390;29;20052;-82
2021/10/12 06:22:20;;;;;;;2.50;2.30;;;;;;;10.16;80.61;100010.94;4917668;29;20052;-86
2021/10/12 06:24:48;;;;;;;3.08;2.33;;;;;;;10.31;79.38;100007.56;4916222;29;20610;-87
2021/10/12 06:27:15;;;;;;;4.25;2.75;;;;;;;10.39;78.69;100010.63;4915194;29;20076;-82
2021/10/12 06:29:42;;;;;;;6.80;2.70;;;;;;;10.20;81.07;100007.25;4914172;29;20047;-82
2021/10/12 06:32:08;;;;;;;4.65;2.83;;;;;;;10.37;80.99;100011.59;4914794;29;20048;-82
2021/10/12 06:34:38;;;;;;;4.22;2.60;;;;;;;10.46;80.74;100014.56;4921720;29;20395;-82
2021/10/12 06:37:05;;;;;;;4.13;2.55;;;;;;;10.54;79.57;100018.53;4915518;29;20139;-81
2021/10/12 06:39:35;;;;;;;3.63;2.30;;;;;;;10.64;78.47;100015.34;4912396;29;20063;-80
2021/10/12 06:42:02;;;;;;;5.65;3.03;;;;;;;10.84;77.76;100022.09;4937299;29;20045;-88
2021/10/12 06:44:29;;;;;;;13.52;7.32;;;;;;;11.04;76.79;100023.63;4910006;29;20492;-91
2021/10/12 06:46:56;;;;;;;95.68;48.80;;;;;;;11.16;76.14;100027.31;4918308;29;20056;-92
2021/10/12 06:49:22;;;;;;;38.55;23.25;;;;;;;11.47;74.31;100035.09;4918740;29;20044;-88
2021/10/12 06:51:49;;;;;;;22.35;12.80;;;;;;;11.67;73.55;100027.91;4920537;29;20088;-94
2021/10/12 06:54:19;;;;;;;19.15;8.30;;;;;;;11.74;72.40;100031.81;4919598;29;20127;-91
2021/10/12 06:56:48;;;;;;;13.77;7.03;;;;;;;11.94;72.82;100035.91;4920235;29;20510;-88
2021/10/12 06:59:15;;;;;;;13.68;9.07;;;;;;;12.06;73.04;100036.03;4911936;29;20091;-88
2021/10/12 07:01:42;;;;;;;12.77;6.97;;;;;;;11.89;72.63;100025.72;4910883;29;20092;-92
2021/10/12 07:04:09;;;;;;;12.20;5.43;;;;;;;11.89;71.89;100038.78;4918406;29;20036;-91
2021/10/12 07:06:35;;;;;;;6.78;4.18;;;;;;;12.00;71.38;100046.00;4918532;29;20460;-92
2021/10/12 07:09:02;;;;;;;9.50;4.80;;;;;;;12.10;71.31;100048.91;4918415;29;20044;-92
2021/10/12 07:11:29;;;;;;;9.82;6.28;;;;;;;12.06;72.02;100056.91;4940181;29;20430;-88
2021/10/12 07:13:56;;;;;;;12.25;7.80;;;;;;;12.00;72.50;100057.28;4929362;29;20040;-90
2021/10/12 07:16:22;;;;;;;8.30;6.20;;;;;;;11.94;72.83;100054.19;4935136;29;20045;-90
2021/10/12 07:18:50;;;;;;;10.13;6.72;;;;;;;12.00;73.07;100059.91;4922560;29;20040;-89
2021/10/12 07:21:17;;;;;;;7.07;5.95;;;;;;;11.90;74.03;100050.91;4930983;29;20048;-91
2021/10/12 07:23:44;;;;;;;10.95;7.07;;;;;;;11.96;74.30;100054.94;4934021;29;20052;-93
2021/10/12 07:26:10;;;;;;;10.70;6.80;;;;;;;12.13;73.59;100046.09;4937409;29;20056;-88
2021/10/12 07:28:37;;;;;;;13.68;8.75;;;;;;;12.50;72.12;100036.88;4956355;28;20052;-88
2021/10/12 07:31:05;;;;;;;10.30;8.25;;;;;;;12.71;70.47;100040.78;4940001;29;20042;-93
2021/10/12 07:33:32;;;;;;;13.35;8.55;;;;;;;12.72;70.01;100044.25;4935100;29;20117;-90
2021/10/12 07:35:59;;;;;;;10.77;8.27;;;;;;;12.88;69.77;100039.72;4924880;29;20048;-94
2021/10/12 07:38:26;;;;;;;12.27;9.07;;;;;;;13.02;69.03;100041.50;4928466;29;20116;-92
2021/10/12 07:40:53;;;;;;;14.02;10.10;;;;;;;13.15;69.50;100049.38;4922171;29;20155;-95
2021/10/12 07:43:20;;;;;;;15.77;11.15;;;;;;;13.35;68.50;100044.59;4922847;29;20104;-90
2021/10/12 07:45:49;;;;;;;18.08;12.68;;;;;;;13.44;68.40;100045.78;4918623;29;20041;-94
2021/10/12 07:48:18;;;;;;;18.23;12.73;;;;;;;13.48;68.42;100044.66;4919910;29;20127;-90
2021/10/12 07:50:45;;;;;;;15.50;12.80;;;;;;;13.14;70.28;100039.88;4915280;29;20070;-91
2021/10/12 07:53:12;;;;;;;23.63;16.33;;;;;;;13.16;70.21;100043.25;4918868;29;20213;-92
2021/10/12 07:55:50;;;;;;;18.65;15.48;;;;;;;13.52;69.11;100038.25;4916782;29;20111;-90
2021/10/12 07:58:22;;;;;;;33.25;15.27;;;;;;;13.48;68.98;100028.09;4915232;29;20044;-94
2021/10/12 08:00:48;;;;;;;17.48;15.52;;;;;;;13.56;68.63;100031.88;4910913;29;20051;-89
2021/10/12 08:03:17;;;;;;;20.40;16.80;;;;;;;13.78;67.45;100030.47;4916487;29;20040;-84
2021/10/12 08:05:44;;;;;;;19.65;17.23;;;;;;;13.56;68.01;100031.03;4916281;29;20044;-85
2021/10/12 08:08:11;;;;;;;27.60;16.65;;;;;;;13.41;69.01;100045.97;4916486;29;20056;-83
2021/10/12 08:10:39;;;;;;;23.10;15.48;;;;;;;13.25;70.04;100047.91;4917516;29;20086;-81
2021/10/12 08:13:14;;;;;;;22.30;15.43;;;;;;;13.42;70.37;100052.03;4916017;29;20048;-87
2021/10/12 08:15:46;;;;;;;17.48;14.38;;;;;;;13.59;69.49;100050.03;4919387;29;20131;-83
2021/10/12 08:18:13;;;;;;;19.83;14.88;;;;;;;13.91;68.08;100046.22;4906877;29;20051;-86
2021/10/12 08:20:40;;;;;;;21.83;14.38;;;;;;;14.28;66.28;100039.31;4916483;29;20040;-84
2021/10/12 08:23:10;;;;;;;19.55;15.40;;;;;;;13.99;66.81;100043.91;4916867;29;20040;-88
2021/10/12 08:25:37;;;;;;;20.30;13.93;;;;;;;13.72;68.07;100036.13;4916462;29;20040;-86
2021/10/12 08:28:04;;;;;;;17.50;12.88;;;;;;;14.33;66.73;100024.13;4916467;29;20052;-84
2021/10/12 08:30:33;;;;;;;19.08;14.20;;;;;;;13.89;68.50;100002.59;4916059;29;20044;-82
2021/10/12 08:33:01;;;;;;;19.92;14.20;;;;;;;14.56;66.18;99994.53;4915770;29;20436;-80
2021/10/12 08:35:28;;;;;;;19.92;14.23;;;;;;;15.19;63.50;99992.66;4910940;29;20060;-80
2021/10/12 08:37:54;;;;;;;19.25;14.73;;;;;;;15.44;62.03;99976.72;4912360;29;20052;-80
2021/10/12 08:40:21;;;;;;;17.50;15.68;;;;;;;15.68;60.78;99965.38;4915745;29;20048;-86
2021/10/12 08:42:53;;;;;;;19.98;14.73;;;;;;;15.88;60.36;99959.44;4908807;29;20103;-84
2021/10/12 08:45:22;;;;;;;20.45;16.73;;;;;;;15.88;60.36;99945.47;4908828;29;20048;-91
2021/10/12 08:47:51;;;;;;;22.45;17.33;;;;;;;16.02;60.37;99939.97;4910088;29;20051;-87
2021/10/12 08:50:22;;;;;;;23.50;16.67;;;;;;;16.03;59.19;99932.91;4911681;29;20047;-87
2021/10/12 08:52:49;;;;;;;18.63;16.30;;;;;;;16.14;57.47;99928.53;4916109;29;20040;-84
2021/10/12 08:55:16;;;;;;;26.27;17.23;;;;;;;15.99;58.14;99934.97;4914257;29;20040;-82
2021/10/12 08:57:45;;;;;;;19.77;17.55;;;;;;;15.50;60.48;99935.19;4915940;29;20078;-82
2021/10/12 09:00:15;;;;;;;20.17;17.33;;;;;;;15.55;61.41;99939.16;4916210;29;20108;-84
2021/10/12 09:05:52;;;;;;;23.42;18.52;;;;;;;14.90;63.00;99934.38;4915620;29;20119;-81
2021/10/12 09:08:27;;;;;;;25.75;18.05;;;;;;;15.50;61.26;99945.69;4915329;29;20044;-79
2021/10/12 09:10:55;;;;;;;25.40;18.75;;;;;;;15.36;61.79;99942.34;4915650;29;20047;-84
2021/10/12 09:13:22;;;;;;;28.65;19.52;;;;;;;14.60;64.90;99945.31;4915579;29;20048;-84
2021/10/12 09:16:08;;;;;;;25.92;19.48;;;;;;;15.00;64.17;99953.75;4915824;29;20049;-83
2021/10/12 09:18:57;;;;;;;24.52;17.90;;;;;;;14.83;64.59;99957.63;4919477;29;20055;-82
2021/10/12 09:21:28;;;;;;;22.05;17.45;;;;;;;14.72;65.50;99964.59;4917126;29;20123;-80
2021/10/12 09:24:23;;;;;;;19.73;17.60;;;;;;;14.65;66.67;99962.41;4918917;29;20048;-80
2021/10/12 09:26:54;;;;;;;21.10;16.80;;;;;;;15.27;64.69;99978.94;4918999;29;20043;-81
2021/10/12 09:29:36;;;;;;;27.20;17.75;;;;;;;15.86;63.91;99973.66;4916942;29;20128;-84
2021/10/12 09:32:05;;;;;;;21.33;18.77;;;;;;;15.82;62.93;99975.69;4918752;29;20044;-85
2021/10/12 09:34:34;;;;;;;27.85;18.55;;;;;;;15.87;63.22;99964.81;4919918;29;20040;-89
2021/10/12 09:37:02;;;;;;;28.67;16.55;;;;;;;15.46;64.51;99961.72;4919943;29;20052;-86
2021/10/12 09:39:35;;;;;;;22.02;17.52;;;;;;;16.16;62.36;99967.84;4918880;29;20048;-82
2021/10/12 09:42:05;;;;;;;17.70;15.70;;;;;;;15.90;62.71;99969.84;4916400;29;20048;-84
2021/10/12 09:44:36;;;;;;;20.50;15.88;;;;;;;15.19;65.39;99964.59;4918858;29;20046;-83
2021/10/12 09:47:08;;;;;;;22.27;17.67;;;;;;;15.45;64.53;99959.22;4918354;29;20048;-88
2021/10/12 09:49:36;;;;;;;19.90;17.40;;;;;;;15.58;64.24;99948.59;4918960;29;20108;-84
2021/10/12 09:52:12;;;;;;;23.20;18.27;;;;;;;15.89;63.75;99941.88;4919258;29;20059;-86
2021/10/12 09:54:49;;;;;;;21.03;16.50;;;;;;;15.65;64.78;99942.78;4915448;29;20447;-83
2021/10/12 09:57:19;;;;;;;24.92;18.33;;;;;;;15.03;66.01;99945.69;4920162;29;20311;-85
2021/10/12 09:59:50;;;;;;;25.75;17.63;;;;;;;14.79;65.80;99952.69;4915636;29;20048;-89
2021/10/12 10:02:19;;;;;;;27.13;19.63;;;;;;;14.57;66.84;99956.00;4923167;29;20040;-92
2021/10/12 10:04:48;;;;;;;24.98;18.83;;;;;;;14.64;67.07;99958.06;4932932;29;20068;-80
2021/10/12 10:07:20;;;;;;;26.02;19.55;;;;;;;15.06;65.65;99961.19;4933321;29;20056;-84
2021/10/12 10:09:48;;;;;;;22.83;18.92;;;;;;;14.90;66.54;99952.75;4918002;29;20835;-84
2021/10/12 10:12:15;;;;;;;22.85;17.98;;;;;;;14.76;68.30;99952.94;4917040;29;20040;-80
2021/10/12 10:14:42;;;;;;;23.23;18.98;;;;;;;15.19;67.46;99954.09;4914746;29;20084;-88
2021/10/12 10:17:09;;;;;;;27.65;19.50;;;;;;;15.23;65.76;99957.31;4918508;29;20070;-91
2021/10/12 10:19:41;;;;;;;29.15;20.63;;;;;;;15.45;63.38;99943.44;4917813;29;20040;-84
2021/10/12 10:22:08;;;;;;;22.45;18.70;;;;;;;15.68;63.83;99936.47;4919014;29;20142;-86
2021/10/12 10:24:41;;;;;;;24.95;19.08;;;;;;;15.69;63.80;99928.47;4916921;29;20048;-79
2021/10/12 10:27:30;;;;;;;21.92;19.38;;;;;;;15.84;63.16;99938.78;4914917;29;20052;-79
2021/10/12 10:30:22;;;;;;;25.05;21.45;;;;;;;15.66;63.55;99941.84;4915778;29;20052;-77
2021/10/12 10:33:04;;;;;;;24.02;18.75;;;;;;;15.25;65.18;99944.09;4909764;29;20052;-77
2021/10/12 10:35:38;;;;;;;23.98;18.83;;;;;;;15.38;64.31;99942.22;4915660;29;20048;-79
2021/10/12 10:38:20;;;;;;;26.02;18.73;;;;;;;14.80;66.33;99938.63;4915575;29;20482;-80
2021/10/12 10:40:48;;;;;;;20.25;17.92;;;;;;;15.30;65.37;99934.91;4917260;29;20040;-82
2021/10/12 10:43:15;;;;;;;20.08;17.83;;;;;;;14.80;66.35;99943.88;4916617;29;20048;-84
2021/10/12 10:45:50;;;;;;;23.52;18.00;;;;;;;15.56;64.20;99950.53;4916439;29;20499;-83
2021/10/12 10:48:20;;;;;;;25.90;17.55;;;;;;;15.33;64.89;99942.56;4917023;29;20075;-82
2021/10/12 10:51:21;;;;;;;20.52;17.33;;;;;;;15.35;64.84;99931.94;4927082;29;20055;-85
2021/10/12 10:53:47;;;;;;;25.77;18.95;;;;;;;14.15;69.28;99926.59;4915705;29;20082;-86
2021/10/12 10:56:14;;;;;;;22.02;19.65;;;;;;;14.30;69.30;99929.94;4915889;29;20108;-83
2021/10/12 10:58:41;;;;;;;22.50;19.25;;;;;;;15.00;67.40;99932.75;4916678;29;20048;-85
2021/10/12 11:01:08;;;;;;;28.05;20.42;;;;;;;15.42;65.26;99928.75;4913829;29;20037;-86
2021/10/12 11:03:36;;;;;;;32.90;20.25;;;;;;;15.01;65.29;99928.34;4916313;29;20146;-84
2021/10/12 11:06:15;;;;;;;22.20;18.45;;;;;;;15.18;65.39;99920.09;4918775;29;20392;-82
2021/10/12 11:09:02;;;;;;;24.13;18.83;;;;;;;15.52;64.47;99910.50;4917743;29;20052;-85
2021/10/12 11:11:36;;;;;;;23.60;18.13;;;;;;;15.06;64.83;99906.06;4906400;29;20047;-84
2021/10/12 11:14:03;;;;;;;25.23;18.92;;;;;;;15.11;63.35;99909.19;4914262;29;20114;-81
2021/10/12 11:16:36;;;;;;;20.27;16.65;;;;;;;15.27;62.92;99906.25;4916927;29;20040;-83
2021/10/12 11:19:05;;;;;;;18.48;14.63;;;;;;;15.16;62.53;99901.81;4908565;29;20416;-86
2021/10/12 11:21:34;;;;;;;16.60;13.52;;;;;;;15.57;60.88;99894.41;4918286;29;20453;-88
2021/10/12 11:24:02;;;;;;;20.45;14.88;;;;;;;15.41;62.89;99894.72;4918422;29;20040;-82
2021/10/12 11:26:32;;;;;;;18.10;16.08;;;;;;;15.49;62.28;99887.06;4914908;29;20465;-81
2021/10/12 11:29:03;;;;;;;18.95;16.35;;;;;;;15.20;62.92;99877.00;4915535;29;20044;-80
2021/10/12 11:31:31;;;;;;;15.98;14.13;;;;;;;16.00;60.47;99880.59;4913150;29;20100;-82
2021/10/12 11:34:00;;;;;;;21.33;15.27;;;;;;;16.35;58.22;99875.16;4915778;29;20075;-80
2021/10/12 11:36:30;;;;;;;17.83;13.23;;;;;;;15.57;60.47;99876.84;4916027;29;20048;-85